Terminal Aerodrome Forecast
Issued by NWS Charleston, WV

Current Version | Previous Version | Text Only | Print | Product List | Glossary Off
Versions: 1 2 3 4 5 6 7 8 9 10 11 12 13 14 15 16 17 18 19 20 21 22 23 24 25 26

466
FTUS41 KRLX 220859 AAA
TAFPKB
TAF AMD
KPKB 220859Z 2209/2306 11004KT P6SM FEW050 SCT060 BKN100
     FM221800 17007KT P6SM SCT250
     FM222100 17008KT P6SM BKN070
     FM230100 16010G16KT P6SM OVC060
     FM230300 16011G19KT 4SM -SHRA BKN045
     FM230500 18008KT 6SM -SHRA BKN035=

USA.gov is the U.S. government's official web portal to all federal, state and local government web resources and services.